METAR Analyzer

一覧表示

Hello, Guest. (Login)

RJGG/NGO  -  名古屋/中部

観測日時
2020-10-25 14:00 (UTC) (40分前)
気温
17
露点
10
湿数
7
相対湿度
63.4%
QNH
1017.3hPa
推定現地気圧
1016.8hPa
推定海面気圧
1017.3hPa
体感温度
7.1
(無風時)
17.9
HI
16.4
気温前日比
+2
体感温度前日比
+2.8
HI前日比
+2.2
水平視程
>10000m
鉛直視程
データなし
雲底高度
No dense clouds
V/I
VMC (VFR)
RVR
No RVR data
卓越風
15kt from 310°
ガスト
No gust
降水
報告なし
その他の天気
報告なし
少しの(1/8) 層積雲 @ 4000ft AGL

RJGG 251400Z 31015KT 9999 FEW040 17/10 Q1017 NOSIG RMK 1SC040 A3004

RJNA/NKM  -  名古屋/小牧

観測日時
2020-10-25 14:00 (UTC) (40分前)
気温
13
露点
8
湿数
5
相対湿度
71.6%
QNH
1017.6hPa
推定現地気圧
1015.9hPa
推定海面気圧
1017.6hPa
体感温度
9.1
(無風時)
15
HI
12.2
気温前日比
±0
体感温度前日比
+2.5
HI前日比
-0.2
水平視程
>10000m
鉛直視程
データなし
雲底高度
No dense clouds
V/I
VMC (VFR)
RVR
No RVR data
卓越風
2kt from VRB
ガスト
No gust
降水
報告なし
その他の天気
報告なし
少しの(1/8) 積雲 @ 3000ft AGL

RJNA 251400Z VRB02KT 9999 FEW030 13/08 Q1017 RMK 1CU030 A3005

RJNY  -  静浜基地

観測日時
2020-10-25 14:00 (UTC) (40分前)
気温
12
露点
9
湿数
3
相対湿度
81.9%
QNH
1015.2hPa
推定現地気圧
1014.4hPa
推定海面気圧
1015.3hPa
体感温度
6.5
(無風時)
14.3
HI
11.4
気温前日比
-1
体感温度前日比
+4
HI前日比
-0.6
水平視程
>10000m
鉛直視程
データなし
雲底高度
No dense clouds
V/I
VMC (VFR)
RVR
No RVR data
卓越風
3kt from 290° (270° ~ 330°)
ガスト
No gust
降水
報告なし
その他の天気
報告なし
少しの(1/8) 積雲 @ 3000ft AGL

RJNY 251400Z 29003KT 270V330 9999 FEW030 12/09 Q1015 RMK 1CU030 A2998

RJNH  -  浜松基地

観測日時
2020-10-25 14:00 (UTC) (40分前)
気温
14
露点
6
湿数
8
相対湿度
58.5%
QNH
1015.6hPa
推定現地気圧
1010.1hPa
推定海面気圧
1015.6hPa
体感温度
6.5
(無風時)
15.6
HI
13
気温前日比
±0
体感温度前日比
+1.5
HI前日比
±0
水平視程
>10000m
鉛直視程
データなし
雲底高度
No dense clouds
V/I
VMC (VFR)
RVR
No RVR data
卓越風
6kt from 300°
ガスト
No gust
降水
報告なし
その他の天気
報告なし
少しの(1/8) 層積雲 @ 6000ft AGL

RJNH 251400Z 30006KT 9999 FEW060 14/06 Q1015 RMK 1SC060 A2999

RJNG/QGU  -  岐阜基地

観測日時
2020-10-25 14:00 (UTC) (40分前)
気温
11
露点
7
湿数
4
相対湿度
76.3%
QNH
1017.6hPa
推定現地気圧
1012.9hPa
推定海面気圧
1017.7hPa
体感温度
6.9
(無風時)
13.5
HI
10.1
気温前日比
+1
体感温度前日比
+3.9
HI前日比
+0.9
水平視程
>10000m
鉛直視程
データなし
雲底高度
No dense clouds
V/I
VMC (VFR)
RVR
No RVR data
卓越風
2kt from VRB
ガスト
No gust
降水
報告なし
その他の天気
報告なし
少しの(1/8) 層積雲 @ 5000ft AGL

RJNG 251400Z VRB02KT 9999 FEW050 11/07 Q1017 RMK 1SC050 A3005

6.8msec